Time;durP1;ratioP1;P1;durP2;ratioP2;P2;SDS_P1;SDS_P2;PMS_P1;PMS_P2;Temp;Humidity;BMP_temperature;BMP_pressure;BME280_temperature;BME280_humidity;BME280_pressure;Samples;Min_cycle;Max_cycle;Signal;HPM_P1;HPM_P2
2022/03/15 00:01:30;;;;;;;;;;;2.20;99.90;;;;;;5125321;28;19962;-71
2022/03/15 00:03:56;;;;;;;;;;;2.20;99.90;;;;;;5123844;28;19926;-71
2022/03/15 00:06:23;;;;;;;;;;;2.20;99.90;;;;;;5124064;28;19920;-71
2022/03/15 00:08:50;;;;;;;;;;;2.20;99.90;;;;;;5124712;28;20093;-71
2022/03/15 00:11:16;;;;;;;;;;;2.20;99.90;;;;;;5124403;28;20253;-71
2022/03/15 00:13:47;;;;;;;;;;;2.20;99.90;;;;;;5124274;28;19923;-71
2022/03/15 00:16:13;;;;;;;;;;;2.20;99.90;;;;;;5123397;28;19999;-70
2022/03/15 00:18:41;;;;;;;;;;;2.20;99.90;;;;;;5124196;28;19934;-71
2022/03/15 00:21:09;;;;;;;;;;;2.10;99.90;;;;;;5124374;28;19920;-71
2022/03/15 00:23:36;;;;;;;;;;;2.10;99.90;;;;;;5124619;28;19924;-71
2022/03/15 00:26:02;;;;;;;;;;;2.10;99.90;;;;;;5123571;28;19920;-71
2022/03/15 00:28:31;;;;;;;;;;;2.10;99.90;;;;;;5122958;28;19954;-71
2022/03/15 00:30:59;;;;;;;;;;;2.10;99.90;;;;;;5110977;28;20140;-71
2022/03/15 00:33:26;;;;;;;;;;;2.10;99.90;;;;;;5124143;28;19919;-71
2022/03/15 00:35:53;;;;;;;;;;;2.10;99.90;;;;;;5123279;28;19965;-71
2022/03/15 00:38:20;;;;;;;;;;;2.10;99.90;;;;;;5123790;28;20175;-71
2022/03/15 00:40:47;;;;;;;;;;;2.10;99.90;;;;;;5123844;28;19920;-71
2022/03/15 00:43:13;;;;;;;;;;;2.10;99.90;;;;;;5112765;28;19920;-70
2022/03/15 00:45:40;;;;;;;;;;;2.10;99.90;;;;;;5103082;28;19923;-71
2022/03/15 00:48:08;;;;;;;;;;;2.00;99.90;;;;;;5103675;28;19936;-71
2022/03/15 00:50:39;;;;;;;;;;;2.00;99.90;;;;;;5123300;28;19926;-71
2022/03/15 00:53:06;;;;;;;;;;;2.00;99.90;;;;;;5123891;28;19962;-71
2022/03/15 00:55:33;;;;;;;;;;;2.00;99.90;;;;;;5114419;28;20223;-71
2022/03/15 00:57:59;;;;;;;;;;;1.90;99.90;;;;;;5123914;28;20162;-71
2022/03/15 01:00:27;;;;;;;;;;;1.90;99.90;;;;;;5124056;28;20215;-71
2022/03/15 01:02:54;;;;;;;;;;;1.90;99.90;;;;;;5123342;28;20119;-70
2022/03/15 01:05:22;;;;;;;;;;;1.90;99.90;;;;;;5123047;28;20023;-71
2022/03/15 01:07:48;;;;;;;;;;;1.80;99.90;;;;;;5123963;28;19919;-71
2022/03/15 01:10:15;;;;;;;;;;;1.80;99.90;;;;;;5110637;28;20234;-71
2022/03/15 01:12:41;;;;;;;;;;;1.80;99.90;;;;;;5103166;28;19924;-71
2022/03/15 01:15:08;;;;;;;;;;;1.80;99.90;;;;;;5113266;22;19928;-71
2022/03/15 01:17:35;;;;;;;;;;;1.80;99.90;;;;;;5087739;28;19920;-71
2022/03/15 01:20:02;;;;;;;;;;;1.80;99.90;;;;;;5095827;28;20136;-71
2022/03/15 01:22:30;;;;;;;;;;;1.80;99.90;;;;;;5103065;28;19983;-71
2022/03/15 01:24:57;;;;;;;;;;;1.80;99.90;;;;;;5102192;28;20170;-71
2022/03/15 01:27:23;;;;;;;;;;;1.80;99.90;;;;;;5102200;28;19927;-70
2022/03/15 01:29:50;;;;;;;;;;;1.80;99.90;;;;;;5103464;28;20173;-71
2022/03/15 01:32:17;;;;;;;;;;;1.80;99.90;;;;;;5103127;28;19924;-70
2022/03/15 01:34:43;;;;;;;;;;;1.80;99.90;;;;;;5103058;28;19958;-70
2022/03/15 01:37:10;;;;;;;;;;;1.80;99.90;;;;;;5102262;28;20233;-71
2022/03/15 01:39:38;;;;;;;;;;;1.80;99.90;;;;;;5102775;28;20127;-70
2022/03/15 01:42:05;;;;;;;;;;;1.70;99.90;;;;;;5103087;28;19928;-70
2022/03/15 01:44:33;;;;;;;;;;;1.70;99.90;;;;;;5102918;28;19920;-70
2022/03/15 01:47:00;;;;;;;;;;;1.70;99.90;;;;;;5102062;28;20033;-70
2022/03/15 01:49:26;;;;;;;;;;;1.70;99.90;;;;;;5102570;28;19927;-71
2022/03/15 01:51:53;;;;;;;;;;;1.70;99.90;;;;;;5103093;28;19924;-70
2022/03/15 01:54:21;;;;;;;;;;;1.60;99.90;;;;;;5102734;28;19920;-71
2022/03/15 01:56:48;;;;;;;;;;;1.70;99.90;;;;;;5102237;28;20203;-71
2022/03/15 01:59:16;;;;;;;;;;;1.60;99.90;;;;;;5102916;28;19924;-70
2022/03/15 02:01:43;;;;;;;;;;;1.70;99.90;;;;;;5102807;28;19927;-71
2022/03/15 02:04:11;;;;;;;;;;;1.70;99.90;;;;;;5106607;28;20034;-71
2022/03/15 02:06:38;;;;;;;;;;;1.70;99.90;;;;;;5102262;28;20212;-71
2022/03/15 02:09:07;;;;;;;;;;;1.70;99.90;;;;;;5105308;28;19920;-71
2022/03/15 02:11:35;;;;;;;;;;;1.70;99.90;;;;;;5086328;28;19920;-70
2022/03/15 02:14:04;;;;;;;;;;;1.70;99.90;;;;;;5086051;28;19968;-70
2022/03/15 02:16:30;;;;;;;;;;;1.70;99.90;;;;;;5092517;28;20298;-71
2022/03/15 02:18:58;;;;;;;;;;;1.70;99.90;;;;;;5105456;28;20103;-71
2022/03/15 02:21:26;;;;;;;;;;;1.60;99.90;;;;;;5105927;28;19920;-70
2022/03/15 02:23:53;;;;;;;;;;;1.60;99.90;;;;;;5105998;28;20155;-71
2022/03/15 02:26:19;;;;;;;;;;;1.60;99.90;;;;;;5105521;28;19920;-71
2022/03/15 02:28:46;;;;;;;;;;;1.60;99.90;;;;;;5106118;28;19927;-70
2022/03/15 02:31:13;;;;;;;;;;;1.70;99.90;;;;;;5104515;28;19924;-71
2022/03/15 02:33:40;;;;;;;;;;;1.60;99.90;;;;;;5106141;28;19927;-70
2022/03/15 02:36:07;;;;;;;;;;;1.60;99.90;;;;;;5108637;28;19927;-70
2022/03/15 02:38:35;;;;;;;;;;;1.60;99.90;;;;;;5106089;28;19920;-71
2022/03/15 02:41:02;;;;;;;;;;;1.60;99.90;;;;;;5106194;28;20135;-71
2022/03/15 02:43:29;;;;;;;;;;;1.60;99.90;;;;;;5105567;28;19920;-70
2022/03/15 02:45:56;;;;;;;;;;;1.60;99.90;;;;;;5103139;28;19926;-71
2022/03/15 02:48:22;;;;;;;;;;;1.50;99.90;;;;;;5105702;28;20170;-71
2022/03/15 02:50:49;;;;;;;;;;;1.50;99.90;;;;;;5105912;28;19927;-71
2022/03/15 02:53:16;;;;;;;;;;;1.60;99.90;;;;;;5105784;28;19927;-71
2022/03/15 02:55:44;;;;;;;;;;;1.50;99.90;;;;;;5103730;28;19934;-71
2022/03/15 02:58:11;;;;;;;;;;;1.50;99.90;;;;;;5104658;28;20116;-70
2022/03/15 03:00:38;;;;;;;;;;;1.60;99.90;;;;;;5105463;28;20100;-71
2022/03/15 03:03:05;;;;;;;;;;;1.50;99.90;;;;;;5104824;28;19992;-71
2022/03/15 03:05:31;;;;;;;;;;;1.60;99.90;;;;;;5104944;28;19965;-71
2022/03/15 03:07:58;;;;;;;;;;;1.60;99.90;;;;;;5105512;28;19920;-71
2022/03/15 03:10:25;;;;;;;;;;;1.50;99.90;;;;;;5104780;28;20146;-71
2022/03/15 03:12:54;;;;;;;;;;;1.50;99.90;;;;;;5105525;28;19920;-71
2022/03/15 03:15:22;;;;;;;;;;;1.50;99.90;;;;;;5104544;28;19928;-70
2022/03/15 03:17:48;;;;;;;;;;;1.60;99.90;;;;;;5104632;28;20468;-71
2022/03/15 03:20:17;;;;;;;;;;;1.50;99.90;;;;;;5092980;28;20115;-71
2022/03/15 03:22:44;;;;;;;;;;;1.60;99.90;;;;;;5104316;28;19927;-71
2022/03/15 03:25:11;;;;;;;;;;;1.60;99.90;;;;;;5103908;28;19927;-71
2022/03/15 03:27:37;;;;;;;;;;;1.60;99.90;;;;;;5105149;28;19927;-71
2022/03/15 03:30:06;;;;;;;;;;;1.60;99.90;;;;;;5104803;28;19920;-71
2022/03/15 03:32:32;;;;;;;;;;;1.60;99.90;;;;;;5105019;28;19928;-71
2022/03/15 03:35:04;;;;;;;;;;;1.50;99.90;;;;;;5104519;28;19924;-71
2022/03/15 03:37:30;;;;;;;;;;;1.50;99.90;;;;;;5104042;28;19920;-70
2022/03/15 03:39:58;;;;;;;;;;;1.50;99.90;;;;;;5104908;28;19942;-71
2022/03/15 03:42:25;;;;;;;;;;;1.50;99.90;;;;;;5104514;28;20000;-70
2022/03/15 03:44:51;;;;;;;;;;;1.60;99.90;;;;;;5100027;28;19920;-71
2022/03/15 03:47:19;;;;;;;;;;;1.60;99.90;;;;;;5103779;28;19920;-70
2022/03/15 03:49:46;;;;;;;;;;;1.60;99.90;;;;;;5102880;28;19920;-71
2022/03/15 03:52:13;;;;;;;;;;;1.60;99.90;;;;;;5098446;28;20203;-71
2022/03/15 03:54:39;;;;;;;;;;;1.50;99.90;;;;;;5104135;28;20111;-71
2022/03/15 03:57:06;;;;;;;;;;;1.50;99.90;;;;;;5101300;28;19974;-71
2022/03/15 03:59:32;;;;;;;;;;;1.50;99.90;;;;;;5103900;28;19926;-70
2022/03/15 04:01:59;;;;;;;;;;;1.50;99.90;;;;;;5104464;28;19927;-71
2022/03/15 04:04:28;;;;;;;;;;;1.50;99.90;;;;;;5103804;28;19920;-71
2022/03/15 04:06:55;;;;;;;;;;;1.50;99.90;;;;;;5103779;28;19966;-70
2022/03/15 04:09:22;;;;;;;;;;;1.60;99.90;;;;;;5103973;28;19984;-71
2022/03/15 04:11:49;;;;;;;;;;;1.60;99.90;;;;;;5103737;28;20241;-71
2022/03/15 04:14:16;;;;;;;;;;;1.60;99.90;;;;;;5103947;28;19966;-71
2022/03/15 04:16:43;;;;;;;;;;;1.60;99.90;;;;;;5103349;28;19983;-71
2022/03/15 04:19:09;;;;;;;;;;;1.60;99.90;;;;;;5103666;28;19920;-70
2022/03/15 04:21:37;;;;;;;;;;;1.60;99.90;;;;;;5104116;28;19920;-71
2022/03/15 04:24:04;;;;;;;;;;;1.70;99.90;;;;;;5103609;28;19991;-71
2022/03/15 04:26:31;;;;;;;;;;;1.60;99.90;;;;;;5103194;28;19924;-71
2022/03/15 04:28:57;;;;;;;;;;;1.60;99.90;;;;;;5103960;28;19955;-70
2022/03/15 04:31:24;;;;;;;;;;;1.50;99.90;;;;;;5100417;28;19943;-71
2022/03/15 04:33:51;;;;;;;;;;;1.50;99.90;;;;;;5103362;28;20131;-71
2022/03/15 04:36:17;;;;;;;;;;;1.50;99.90;;;;;;5102663;28;19927;-71
2022/03/15 04:38:45;;;;;;;;;;;1.50;99.90;;;;;;5103400;28;19923;-71
2022/03/15 04:41:12;;;;;;;;;;;1.50;99.90;;;;;;5084198;28;20268;-70
2022/03/15 04:43:38;;;;;;;;;;;1.50;99.90;;;;;;5103595;28;19920;-71
2022/03/15 04:46:05;;;;;;;;;;;1.50;99.90;;;;;;5102962;28;19926;-71
2022/03/15 04:48:32;;;;;;;;;;;1.50;99.90;;;;;;5103188;28;19920;-71
2022/03/15 04:50:59;;;;;;;;;;;1.50;99.90;;;;;;5103625;28;19927;-71
2022/03/15 04:53:25;;;;;;;;;;;1.50;99.90;;;;;;5103432;28;19927;-70
2022/03/15 04:55:53;;;;;;;;;;;1.50;99.90;;;;;;5102615;28;19920;-70
2022/03/15 04:58:20;;;;;;;;;;;1.50;99.90;;;;;;5103415;28;19959;-70
2022/03/15 05:00:47;;;;;;;;;;;1.50;99.90;;;;;;5103326;28;19920;-70
2022/03/15 05:03:16;;;;;;;;;;;1.60;99.90;;;;;;5103557;28;19920;-70
2022/03/15 05:05:43;;;;;;;;;;;1.60;99.90;;;;;;5102776;28;19924;-71
2022/03/15 05:08:10;;;;;;;;;;;1.50;99.90;;;;;;5103342;28;19920;-71
2022/03/15 05:13:22;;;;;;;;;;;1.60;99.90;;;;;;5102959;28;19954;-71
2022/03/15 05:15:49;;;;;;;;;;;1.60;99.90;;;;;;5102546;28;19952;-71
2022/03/15 05:18:15;;;;;;;;;;;1.60;99.90;;;;;;5103087;28;19920;-71
2022/03/15 05:20:42;;;;;;;;;;;1.60;99.90;;;;;;5100426;28;19920;-71
2022/03/15 05:23:08;;;;;;;;;;;1.60;99.90;;;;;;5098906;28;19920;-71
2022/03/15 05:25:35;;;;;;;;;;;1.60;99.90;;;;;;5102872;28;19920;-71
2022/03/15 05:28:02;;;;;;;;;;;1.60;99.90;;;;;;5092374;28;19921;-71
2022/03/15 05:30:29;;;;;;;;;;;1.60;99.90;;;;;;5083365;28;19927;-71
2022/03/15 05:32:56;;;;;;;;;;;1.60;99.90;;;;;;5089131;28;19987;-71
2022/03/15 05:35:23;;;;;;;;;;;1.60;99.90;;;;;;5093957;28;20061;-71
2022/03/15 05:37:49;;;;;;;;;;;1.60;99.90;;;;;;5103302;28;19920;-71
2022/03/15 05:40:16;;;;;;;;;;;1.60;99.90;;;;;;5103217;28;19920;-71
2022/03/15 05:42:42;;;;;;;;;;;1.60;99.90;;;;;;5103541;28;20203;-71
2022/03/15 05:45:09;;;;;;;;;;;1.60;99.90;;;;;;5097758;28;20105;-70
2022/03/15 05:47:38;;;;;;;;;;;1.70;99.90;;;;;;5095011;28;19920;-71
2022/03/15 05:50:05;;;;;;;;;;;1.70;99.90;;;;;;5106783;28;19920;-72
2022/03/15 05:52:31;;;;;;;;;;;1.70;99.90;;;;;;5106514;28;19919;-71
2022/03/15 05:54:58;;;;;;;;;;;1.70;99.90;;;;;;5106675;28;20142;-71
2022/03/15 05:57:25;;;;;;;;;;;1.70;99.90;;;;;;5106160;28;19925;-71
2022/03/15 05:59:51;;;;;;;;;;;1.70;99.90;;;;;;5106255;28;19927;-71
2022/03/15 06:02:18;;;;;;;;;;;1.70;99.90;;;;;;5103536;28;19920;-71
2022/03/15 06:04:46;;;;;;;;;;;1.80;99.90;;;;;;5106282;28;19920;-70
2022/03/15 06:07:13;;;;;;;;;;;1.70;99.90;;;;;;5105230;28;19935;-72
2022/03/15 06:09:39;;;;;;;;;;;1.80;99.90;;;;;;5107012;28;19983;-70
2022/03/15 06:12:07;;;;;;;;;;;1.80;99.90;;;;;;5108794;28;19920;-70
2022/03/15 06:14:33;;;;;;;;;;;1.80;99.90;;;;;;5098079;28;19920;-70
2022/03/15 06:17:00;;;;;;;;;;;1.80;99.90;;;;;;5105408;28;19983;-70
2022/03/15 06:19:26;;;;;;;;;;;1.80;99.90;;;;;;5103273;28;20015;-68
2022/03/15 06:21:54;;;;;;;;;;;1.80;99.90;;;;;;5098100;28;19954;-70
2022/03/15 06:24:22;;;;;;;;;;;1.90;99.90;;;;;;5097781;28;19919;-69
2022/03/15 06:26:48;;;;;;;;;;;1.90;99.90;;;;;;5105535;28;20230;-70
2022/03/15 06:29:15;;;;;;;;;;;1.90;99.90;;;;;;5104656;28;20227;-70
2022/03/15 06:31:41;;;;;;;;;;;2.00;99.90;;;;;;5105502;28;19927;-70
2022/03/15 06:34:08;;;;;;;;;;;2.00;99.90;;;;;;5105356;28;19929;-70
2022/03/15 06:36:35;;;;;;;;;;;2.00;99.90;;;;;;5105454;28;19920;-69
2022/03/15 06:39:03;;;;;;;;;;;2.10;99.90;;;;;;5106010;28;20217;-70
2022/03/15 06:41:30;;;;;;;;;;;2.10;99.90;;;;;;5106322;28;19934;-70
2022/03/15 06:43:57;;;;;;;;;;;2.10;99.90;;;;;;5106040;28;19966;-70
2022/03/15 06:46:24;;;;;;;;;;;2.20;99.90;;;;;;5105189;28;20218;-71
2022/03/15 06:48:51;;;;;;;;;;;2.20;99.90;;;;;;5103324;28;20139;-71
2022/03/15 06:51:17;;;;;;;;;;;2.20;99.90;;;;;;5103138;28;20226;-71
2022/03/15 06:53:44;;;;;;;;;;;2.30;99.90;;;;;;5105567;28;20111;-71
2022/03/15 06:56:12;;;;;;;;;;;2.30;99.90;;;;;;5104706;28;19920;-71
2022/03/15 06:58:39;;;;;;;;;;;2.30;99.90;;;;;;5105501;28;19928;-71
2022/03/15 07:01:05;;;;;;;;;;;2.40;99.90;;;;;;5105346;28;19927;-70
2022/03/15 07:03:33;;;;;;;;;;;2.40;99.90;;;;;;5105580;28;19920;-71
2022/03/15 07:06:00;;;;;;;;;;;2.50;99.90;;;;;;5104750;28;19920;-71
2022/03/15 07:08:27;;;;;;;;;;;2.50;99.90;;;;;;5105651;28;19920;-71
2022/03/15 07:10:53;;;;;;;;;;;2.50;99.90;;;;;;5104754;28;19926;-71
2022/03/15 07:13:21;;;;;;;;;;;2.70;99.90;;;;;;5104504;28;19927;-71
2022/03/15 07:15:48;;;;;;;;;;;2.70;99.90;;;;;;5124905;22;20310;-94
2022/03/15 07:18:18;;;;;;;;;;;2.80;99.90;;;;;;5171802;27;20291;-92
2022/03/15 07:20:45;;;;;;;;;;;2.80;99.90;;;;;;5161276;27;19929;-93
2022/03/15 07:23:12;;;;;;;;;;;2.90;99.90;;;;;;5182063;27;19970;-92
2022/03/15 07:25:38;;;;;;;;;;;3.30;99.90;;;;;;5167951;27;19971;-93
2022/03/15 07:28:05;;;;;;;;;;;2.90;99.90;;;;;;5181655;27;19907;-92
2022/03/15 07:33:12;;;;;;;;;;;3.10;99.90;;;;;;5102582;28;19943;-70
2022/03/15 07:35:38;;;;;;;;;;;3.10;99.90;;;;;;5104474;28;19928;-71
2022/03/15 07:38:05;;;;;;;;;;;3.20;99.90;;;;;;5104116;28;19926;-71
2022/03/15 07:40:32;;;;;;;;;;;3.30;99.90;;;;;;5106415;28;19926;-72
2022/03/15 07:42:58;;;;;;;;;;;3.30;99.90;;;;;;5104013;28;19920;-71
2022/03/15 07:45:25;;;;;;;;;;;3.40;99.90;;;;;;5119231;28;19920;-72
2022/03/15 07:47:52;;;;;;;;;;;3.50;99.90;;;;;;5094622;28;19966;-71
2022/03/15 07:50:20;;;;;;;;;;;3.60;99.90;;;;;;5104336;28;19927;-71
2022/03/15 07:52:47;;;;;;;;;;;3.70;99.90;;;;;;5103806;28;20227;-72
2022/03/15 07:55:14;;;;;;;;;;;3.70;99.90;;;;;;5103788;28;19926;-72
2022/03/15 07:57:40;;;;;;;;;;;3.80;99.90;;;;;;5103910;28;19920;-72
2022/03/15 08:00:07;;;;;;;;;;;3.90;99.90;;;;;;5104393;28;19920;-72
2022/03/15 08:02:34;;;;;;;;;;;4.00;99.90;;;;;;5104103;28;19982;-71
2022/03/15 08:05:01;;;;;;;;;;;4.00;99.90;;;;;;5100572;28;19920;-70
2022/03/15 08:07:29;;;;;;;;;;;4.20;99.90;;;;;;5103168;28;19920;-71
2022/03/15 08:09:55;;;;;;;;;;;4.30;99.90;;;;;;5103970;28;20242;-71
2022/03/15 08:12:22;;;;;;;;;;;4.40;99.90;;;;;;5104301;28;19928;-71
2022/03/15 08:14:48;;;;;;;;;;;4.50;99.90;;;;;;5090880;28;19920;-72
2022/03/15 08:17:15;;;;;;;;;;;4.60;99.90;;;;;;5085228;28;19920;-72
2022/03/15 08:19:42;;;;;;;;;;;4.80;99.90;;;;;;5103242;28;19932;-71
2022/03/15 08:22:08;;;;;;;;;;;4.90;99.90;;;;;;5104357;28;20215;-72
2022/03/15 08:24:36;;;;;;;;;;;5.00;99.90;;;;;;5104135;28;19927;-72
2022/03/15 08:27:03;;;;;;;;;;;5.10;99.90;;;;;;5103338;28;19920;-71
2022/03/15 08:29:31;;;;;;;;;;;5.20;99.90;;;;;;5103657;28;19991;-70
2022/03/15 08:31:57;;;;;;;;;;;5.30;99.90;;;;;;5103405;28;20258;-72
2022/03/15 08:34:24;;;;;;;;;;;5.40;99.90;;;;;;5102699;28;19920;-71
2022/03/15 08:36:53;;;;;;;;;;;5.50;99.90;;;;;;5103236;28;19973;-71
2022/03/15 08:39:21;;;;;;;;;;;5.50;99.90;;;;;;5103970;28;20092;-72
2022/03/15 08:41:50;;;;;;;;;;;5.60;99.90;;;;;;5103359;28;19920;-71
2022/03/15 08:44:18;;;;;;;;;;;5.70;99.90;;;;;;5103712;28;19955;-71
2022/03/15 08:46:45;;;;;;;;;;;5.80;99.90;;;;;;5103364;28;20200;-72
2022/03/15 08:49:12;;;;;;;;;;;5.80;99.90;;;;;;5102793;28;19928;-72
2022/03/15 08:51:38;;;;;;;;;;;5.80;99.90;;;;;;5103709;28;19920;-71
2022/03/15 08:54:05;;;;;;;;;;;5.90;99.90;;;;;;5098679;28;19930;-71
2022/03/15 08:56:32;;;;;;;;;;;6.00;99.90;;;;;;5082542;28;19920;-71
2022/03/15 08:59:00;;;;;;;;;;;6.10;99.90;;;;;;5083185;28;19920;-72
2022/03/15 09:01:26;;;;;;;;;;;6.20;99.90;;;;;;5087761;28;19920;-72
2022/03/15 09:03:53;;;;;;;;;;;6.20;99.90;;;;;;5088708;28;19987;-71
2022/03/15 09:06:19;;;;;;;;;;;6.30;99.90;;;;;;5082604;28;19920;-71
2022/03/15 09:08:46;;;;;;;;;;;6.30;99.90;;;;;;5083157;28;19920;-72
2022/03/15 09:11:13;;;;;;;;;;;6.30;99.90;;;;;;5083066;28;19963;-70
2022/03/15 09:13:39;;;;;;;;;;;6.30;99.90;;;;;;5094748;28;19920;-72
2022/03/15 09:16:07;;;;;;;;;;;6.40;99.90;;;;;;5097367;28;20067;-71
2022/03/15 09:18:34;;;;;;;;;;;6.40;99.90;;;;;;5086816;28;20230;-72
2022/03/15 09:21:00;;;;;;;;;;;6.50;99.90;;;;;;5086970;28;19920;-72
2022/03/15 09:23:27;;;;;;;;;;;6.50;99.90;;;;;;5095050;28;19920;-72
2022/03/15 09:25:54;;;;;;;;;;;6.60;99.90;;;;;;5106321;28;20126;-71
2022/03/15 09:28:20;;;;;;;;;;;6.70;99.90;;;;;;5107312;28;19920;-71
2022/03/15 09:30:47;;;;;;;;;;;6.70;99.90;;;;;;5107124;28;19928;-72
2022/03/15 09:33:15;;;;;;;;;;;6.80;99.90;;;;;;5107405;28;19927;-71
2022/03/15 09:35:42;;;;;;;;;;;6.80;99.90;;;;;;5106631;28;19924;-72
2022/03/15 09:38:08;;;;;;;;;;;6.80;99.90;;;;;;5093635;28;19927;-71
2022/03/15 09:40:36;;;;;;;;;;;6.90;99.90;;;;;;5107176;28;20114;-72
2022/03/15 09:43:05;;;;;;;;;;;7.00;99.90;;;;;;5107310;28;19926;-71
2022/03/15 09:45:32;;;;;;;;;;;7.10;99.90;;;;;;5106115;28;19920;-72
2022/03/15 09:48:00;;;;;;;;;;;7.20;99.90;;;;;;5107054;28;19927;-71
2022/03/15 09:50:28;;;;;;;;;;;7.20;99.90;;;;;;5107107;28;20100;-72
2022/03/15 09:52:56;;;;;;;;;;;7.30;99.90;;;;;;5106266;28;19924;-71
2022/03/15 09:55:23;;;;;;;;;;;7.30;99.90;;;;;;5106109;28;19920;-72
2022/03/15 09:57:50;;;;;;;;;;;7.40;99.90;;;;;;5107168;28;19920;-72
2022/03/15 10:00:17;;;;;;;;;;;7.50;99.90;;;;;;5106029;28;19969;-72
2022/03/15 10:02:44;;;;;;;;;;;7.50;99.90;;;;;;5106711;28;19920;-72
2022/03/15 10:05:12;;;;;;;;;;;7.60;99.90;;;;;;5097038;28;19927;-71
2022/03/15 10:07:40;;;;;;;;;;;7.70;99.90;;;;;;5085963;28;19920;-70
2022/03/15 10:10:09;;;;;;;;;;;7.80;99.90;;;;;;5091122;28;19983;-72
2022/03/15 10:12:36;;;;;;;;;;;7.90;99.90;;;;;;5106771;28;19989;-72
2022/03/15 10:15:10;;;;;;;;;;;8.00;99.90;;;;;;5106384;28;19952;-71
2022/03/15 10:17:42;;;;;;;;;;;8.00;99.90;;;;;;5106038;28;20204;-71
2022/03/15 10:20:09;;;;;;;;;;;8.10;99.90;;;;;;5095479;28;20243;-73
2022/03/15 10:22:35;;;;;;;;;;;8.30;99.90;;;;;;5093262;28;19943;-72
2022/03/15 10:25:04;;;;;;;;;;;8.40;99.90;;;;;;5105778;28;20462;-70
2022/03/15 10:27:34;;;;;;;;;;;8.50;99.90;;;;;;5096066;28;19920;-70
2022/03/15 10:30:03;;;;;;;;;;;8.50;99.90;;;;;;5085053;28;19921;-73
2022/03/15 10:32:29;;;;;;;;;;;8.50;99.90;;;;;;5085715;28;19926;-72
2022/03/15 10:35:06;;;;;;;;;;;8.60;99.90;;;;;;5094601;28;19920;-72
2022/03/15 10:37:33;;;;;;;;;;;8.60;99.90;;;;;;5105257;28;20191;-73
2022/03/15 10:39:59;;;;;;;;;;;8.70;99.90;;;;;;5105383;28;20153;-71
2022/03/15 10:42:27;;;;;;;;;;;8.70;99.90;;;;;;5105947;28;19924;-72
2022/03/15 10:44:55;;;;;;;;;;;8.70;99.90;;;;;;5105719;28;19920;-73
2022/03/15 10:47:21;;;;;;;;;;;8.80;99.90;;;;;;5104651;28;19952;-72
2022/03/15 10:49:49;;;;;;;;;;;8.70;99.90;;;;;;5105879;28;19927;-72
2022/03/15 10:52:28;;;;;;;;;;;8.70;99.90;;;;;;5105426;28;20115;-73
2022/03/15 10:54:54;;;;;;;;;;;8.70;99.90;;;;;;5099831;28;19921;-72
2022/03/15 10:57:21;;;;;;;;;;;8.80;99.90;;;;;;5087531;28;19988;-73
2022/03/15 10:59:49;;;;;;;;;;;8.70;99.90;;;;;;5104118;28;19920;-72
2022/03/15 11:02:15;;;;;;;;;;;8.70;99.90;;;;;;5105345;28;19920;-73
2022/03/15 11:04:49;;;;;;;;;;;8.70;99.90;;;;;;5105182;28;19921;-72
2022/03/15 11:07:16;;;;;;;;;;;8.70;99.90;;;;;;5104593;28;19987;-71
2022/03/15 11:09:42;;;;;;;;;;;8.70;99.90;;;;;;5104924;28;19959;-71
2022/03/15 11:12:10;;;;;;;;;;;8.80;99.90;;;;;;5097529;28;19928;-73
2022/03/15 11:14:39;;;;;;;;;;;8.70;99.90;;;;;;5105182;28;19920;-69
2022/03/15 11:17:13;;;;;;;;;;;8.80;99.90;;;;;;5104757;28;19920;-70
2022/03/15 11:19:41;;;;;;;;;;;8.80;99.90;;;;;;5104408;28;19923;-71
2022/03/15 11:22:09;;;;;;;;;;;8.80;99.90;;;;;;5103952;28;19997;-70
2022/03/15 11:24:37;;;;;;;;;;;8.80;99.90;;;;;;5104683;28;19920;-70
2022/03/15 11:27:05;;;;;;;;;;;8.80;99.90;;;;;;5100987;28;19920;-72
2022/03/15 11:29:32;;;;;;;;;;;8.90;99.90;;;;;;5104658;28;19928;-73
2022/03/15 11:31:59;;;;;;;;;;;8.90;99.90;;;;;;5104802;28;19926;-72
2022/03/15 11:34:27;;;;;;;;;;;8.90;99.90;;;;;;5104908;28;19920;-72
2022/03/15 11:36:54;;;;;;;;;;;8.90;99.90;;;;;;5104017;28;19926;-75
2022/03/15 11:39:21;;;;;;;;;;;8.90;99.90;;;;;;5104581;28;19955;-72
2022/03/15 11:41:48;;;;;;;;;;;9.00;99.90;;;;;;5092457;28;19984;-72
2022/03/15 11:44:18;;;;;;;;;;;9.00;99.90;;;;;;5101577;28;19935;-72
2022/03/15 11:46:46;;;;;;;;;;;9.10;99.90;;;;;;5104115;28;19923;-72
2022/03/15 11:49:20;;;;;;;;;;;9.10;99.90;;;;;;5104561;28;20227;-72
2022/03/15 11:51:53;;;;;;;;;;;9.20;99.90;;;;;;5104775;28;19920;-72
2022/03/15 11:54:24;;;;;;;;;;;9.20;99.90;;;;;;5104174;28;20225;-72
2022/03/15 11:56:53;;;;;;;;;;;9.20;99.90;;;;;;5089656;28;19983;-72
2022/03/15 11:59:19;;;;;;;;;;;9.20;99.90;;;;;;5102400;28;19924;-71
2022/03/15 12:01:47;;;;;;;;;;;9.20;99.90;;;;;;5104564;28;19927;-71
2022/03/15 12:04:15;;;;;;;;;;;9.20;99.90;;;;;;5104422;28;19927;-71
2022/03/15 12:06:50;;;;;;;;;;;9.30;99.90;;;;;;5103572;28;19920;-71
2022/03/15 12:09:21;;;;;;;;;;;9.40;99.90;;;;;;5104213;28;19920;-72
2022/03/15 12:11:47;;;;;;;;;;;9.40;99.90;;;;;;5103307;28;20211;-71
2022/03/15 12:14:17;;;;;;;;;;;9.50;99.90;;;;;;5103702;28;19926;-69
2022/03/15 12:16:50;;;;;;;;;;;9.60;99.90;;;;;;5102888;28;19920;-72
2022/03/15 12:19:35;;;;;;;;;;;9.60;99.90;;;;;;5103472;28;19928;-72
2022/03/15 12:22:06;;;;;;;;;;;9.70;99.90;;;;;;5104225;28;19920;-72
2022/03/15 12:24:35;;;;;;;;;;;9.70;99.90;;;;;;5091145;28;20111;-71
2022/03/15 12:27:02;;;;;;;;;;;9.70;99.90;;;;;;5082765;28;19920;-72
2022/03/15 12:29:29;;;;;;;;;;;9.70;99.90;;;;;;5089633;28;19920;-72
2022/03/15 12:31:57;;;;;;;;;;;9.60;99.90;;;;;;5103632;28;19920;-72
2022/03/15 12:34:24;;;;;;;;;;;9.50;99.90;;;;;;5104000;28;19920;-72
2022/03/15 12:36:52;;;;;;;;;;;9.60;99.90;;;;;;5103381;28;19920;-71
2022/03/15 12:39:20;;;;;;;;;;;9.60;99.90;;;;;;5103425;28;19924;-72
2022/03/15 12:41:48;;;;;;;;;;;9.70;99.90;;;;;;5103780;28;20123;-72
2022/03/15 12:44:16;;;;;;;;;;;9.70;99.90;;;;;;5102470;28;19935;-72
2022/03/15 12:46:43;;;;;;;;;;;9.80;99.90;;;;;;5083079;28;19924;-72
2022/03/15 12:49:11;;;;;;;;;;;9.70;99.90;;;;;;5086076;28;19936;-72
2022/03/15 12:51:39;;;;;;;;;;;9.80;99.90;;;;;;5103487;28;19920;-72
2022/03/15 12:54:06;;;;;;;;;;;9.70;99.90;;;;;;5103609;28;20092;-72
2022/03/15 12:56:32;;;;;;;;;;;9.70;99.90;;;;;;5102943;28;19927;-72
2022/03/15 12:59:01;;;;;;;;;;;9.70;99.90;;;;;;5095139;28;20236;-71
2022/03/15 13:01:27;;;;;;;;;;;9.70;99.90;;;;;;5103642;28;20230;-71
2022/03/15 13:03:54;;;;;;;;;;;9.80;99.90;;;;;;5103713;28;20123;-72
2022/03/15 13:06:21;;;;;;;;;;;9.80;99.90;;;;;;5102760;28;20249;-72
2022/03/15 13:08:55;;;;;;;;;;;9.80;99.90;;;;;;5103438;28;20207;-70
2022/03/15 13:11:22;;;;;;;;;;;9.90;99.90;;;;;;5103031;28;19966;-71
2022/03/15 13:13:48;;;;;;;;;;;9.90;99.90;;;;;;5096546;28;19960;-72
2022/03/15 13:18:46;;;;;;;;;;;9.80;99.90;;;;;;5081627;28;19927;-71
2022/03/15 13:21:13;;;;;;;;;;;9.80;99.90;;;;;;5083082;28;19929;-70
2022/03/15 13:23:41;;;;;;;;;;;9.80;99.90;;;;;;5083142;28;19920;-71
2022/03/15 13:26:10;;;;;;;;;;;9.80;99.90;;;;;;5081518;28;19920;-70
2022/03/15 13:28:40;;;;;;;;;;;9.80;99.90;;;;;;5062739;28;20004;-71
2022/03/15 13:31:08;;;;;;;;;;;9.70;99.90;;;;;;5062598;28;19956;-70
2022/03/15 13:33:38;;;;;;;;;;;9.70;99.90;;;;;;5063415;28;20111;-70
2022/03/15 13:36:07;;;;;;;;;;;9.80;99.90;;;;;;5062211;28;19921;-70
2022/03/15 13:38:34;;;;;;;;;;;9.70;99.90;;;;;;5062660;28;19925;-71
2022/03/15 13:41:01;;;;;;;;;;;9.80;99.90;;;;;;5059240;28;19928;-71
2022/03/15 13:43:28;;;;;;;;;;;9.80;99.90;;;;;;5050708;28;19929;-70
2022/03/15 13:45:55;;;;;;;;;;;9.80;99.90;;;;;;5054990;28;19983;-70
2022/03/15 13:48:25;;;;;;;;;;;9.80;99.90;;;;;;5062614;28;19967;-71
2022/03/15 13:50:57;;;;;;;;;;;9.80;99.90;;;;;;5051081;28;19921;-71
2022/03/15 13:53:25;;;;;;;;;;;9.80;99.90;;;;;;5062561;28;19921;-71
2022/03/15 13:55:53;;;;;;;;;;;9.80;99.90;;;;;;5061559;28;19966;-71
2022/03/15 13:58:28;;;;;;;;;;;9.80;99.90;;;;;;5062289;28;19928;-71
2022/03/15 14:01:03;;;;;;;;;;;9.80;99.90;;;;;;5062102;28;19955;-70
2022/03/15 14:03:32;;;;;;;;;;;9.80;99.90;;;;;;5062055;28;19959;-71
2022/03/15 14:06:03;;;;;;;;;;;9.80;99.90;;;;;;5064561;28;19924;-71
2022/03/15 14:08:41;;;;;;;;;;;9.90;99.90;;;;;;5066154;28;20115;-70
2022/03/15 14:11:09;;;;;;;;;;;9.90;99.90;;;;;;5063968;28;19921;-70
2022/03/15 14:13:36;;;;;;;;;;;9.90;99.90;;;;;;5065253;28;19921;-71
2022/03/15 14:16:08;;;;;;;;;;;10.00;99.90;;;;;;5064829;28;19921;-70
2022/03/15 14:18:34;;;;;;;;;;;10.00;99.90;;;;;;5065646;28;19921;-71
2022/03/15 14:21:02;;;;;;;;;;;10.00;99.90;;;;;;5066168;28;19959;-70
2022/03/15 14:23:30;;;;;;;;;;;10.10;99.90;;;;;;5085042;28;19991;-71
2022/03/15 14:26:00;;;;;;;;;;;10.10;99.90;;;;;;5074430;28;19928;-71
2022/03/15 14:28:28;;;;;;;;;;;10.00;99.90;;;;;;5065303;28;19944;-71
2022/03/15 14:31:01;;;;;;;;;;;10.00;99.90;;;;;;5065899;28;19921;-71
2022/03/15 14:33:27;;;;;;;;;;;10.00;99.90;;;;;;5065667;28;19999;-70
2022/03/15 14:35:56;;;;;;;;;;;9.90;99.90;;;;;;5064927;28;19921;-70
2022/03/15 14:38:23;;;;;;;;;;;9.90;99.90;;;;;;5065468;28;19943;-70